Time;durP1;ratioP1;P1;durP2;ratioP2;P2;SDS_P1;SDS_P2;PMS_P1;PMS_P2;Temp;Humidity;BMP_temperature;BMP_pressure;BME280_temperature;BME280_humidity;BME280_pressure;Samples;Min_cycle;Max_cycle;Signal;HPM_P1;HPM_P2
2022/08/27 00:02:07;;;;;;;4.32;2.90;;;20.50;73.80;;;;;;5049500;28;20240;-82
2022/08/27 00:04:34;;;;;;;5.72;2.50;;;20.50;74.40;;;;;;5056291;28;20183;-83
2022/08/27 00:07:01;;;;;;;3.22;2.67;;;20.50;74.40;;;;;;5050476;28;20210;-83
2022/08/27 00:09:27;;;;;;;3.00;2.75;;;20.50;74.80;;;;;;5049884;28;20181;-82
2022/08/27 00:11:54;;;;;;;4.18;2.60;;;20.40;74.20;;;;;;5054868;28;20266;-83
2022/08/27 00:14:20;;;;;;;5.30;2.72;;;20.40;73.90;;;;;;5056444;28;20189;-83
2022/08/27 00:16:45;;;;;;;3.08;2.67;;;20.40;74.50;;;;;;5048618;28;20222;-83
2022/08/27 00:19:11;;;;;;;4.65;2.88;;;20.30;74.20;;;;;;5052844;28;20594;-82
2022/08/27 00:21:37;;;;;;;2.55;2.40;;;20.30;74.50;;;;;;5056748;28;20195;-82
2022/08/27 00:24:03;;;;;;;3.63;2.75;;;20.30;73.50;;;;;;5059237;28;20205;-82
2022/08/27 00:26:29;;;;;;;3.58;2.22;;;20.20;75.00;;;;;;5060860;28;20176;-82
2022/08/27 00:28:55;;;;;;;3.45;3.00;;;20.20;74.20;;;;;;5064257;28;20187;-82
2022/08/27 00:31:20;;;;;;;3.05;2.20;;;20.20;74.30;;;;;;5057210;28;20286;-82
2022/08/27 00:33:46;;;;;;;2.38;2.17;;;20.10;74.90;;;;;;5059513;28;20175;-82
2022/08/27 00:36:13;;;;;;;3.35;2.15;;;20.10;74.90;;;;;;5054841;28;20207;-82
2022/08/27 00:38:40;;;;;;;3.13;2.63;;;20.10;74.60;;;;;;5055564;28;20176;-83
2022/08/27 00:41:07;;;;;;;2.20;1.98;;;20.10;74.00;;;;;;5055683;28;20191;-83
2022/08/27 00:43:49;;;;;;;3.30;2.58;;;20.00;74.70;;;;;;5053727;28;20253;-83
2022/08/27 00:46:46;;;;;;;3.83;2.60;;;20.00;74.30;;;;;;5057574;28;20207;-83
2022/08/27 00:49:18;;;;;;;4.20;2.50;;;20.00;74.60;;;;;;5051753;28;20192;-83
2022/08/27 00:51:49;;;;;;;4.57;2.67;;;19.90;74.30;;;;;;5053650;28;20179;-83
2022/08/27 00:54:16;;;;;;;2.30;2.20;;;20.00;75.40;;;;;;5050513;28;20653;-83
2022/08/27 00:56:43;;;;;;;2.60;2.08;;;19.90;75.20;;;;;;5050897;28;20302;-83
2022/08/27 00:59:13;;;;;;;3.15;2.30;;;19.90;75.00;;;;;;5051890;28;20245;-83
2022/08/27 01:02:17;;;;;;;3.35;2.78;;;19.90;75.50;;;;;;5052494;28;20226;-81
2022/08/27 01:04:26;;;;;;;2.58;2.38;;;19.90;75.50;;;;;;5051619;28;20183;-81
2022/08/27 01:06:52;;;;;;;4.00;2.20;;;19.80;75.30;;;;;;5051001;28;20879;-81
2022/08/27 01:09:18;;;;;;;8.02;2.17;;;19.80;75.60;;;;;;5054421;28;20180;-81
2022/08/27 01:11:46;;;;;;;4.15;2.08;;;19.80;75.50;;;;;;5050846;28;20218;-81
2022/08/27 01:14:13;;;;;;;3.40;2.63;;;19.80;75.40;;;;;;5051319;28;20267;-81
2022/08/27 01:16:45;;;;;;;7.22;2.50;;;19.80;75.40;;;;;;5052428;28;20693;-81
2022/08/27 01:19:57;;;;;;;3.25;1.88;;;19.70;75.10;;;;;;5054017;28;20212;-82
2022/08/27 01:22:44;;;;;;;2.83;2.17;;;19.70;75.90;;;;;;5011872;28;20223;-82
2022/08/27 01:25:14;;;;;;;7.25;2.50;;;19.70;75.20;;;;;;5015361;28;20208;-82
2022/08/27 01:27:42;;;;;;;3.58;2.33;;;19.70;75.50;;;;;;5017137;28;20208;-82
2022/08/27 01:30:11;;;;;;;3.08;2.53;;;19.70;75.90;;;;;;5015775;28;20315;-83
2022/08/27 01:32:37;;;;;;;3.13;2.80;;;19.60;76.30;;;;;;5011573;28;20193;-83
2022/08/27 01:35:07;;;;;;;4.20;2.50;;;19.60;76.10;;;;;;5015813;28;20213;-83
2022/08/27 01:37:33;;;;;;;3.08;2.47;;;19.60;76.10;;;;;;5010984;28;20195;-83
2022/08/27 01:40:00;;;;;;;2.35;2.15;;;19.60;76.20;;;;;;5016893;28;20304;-83
2022/08/27 01:42:33;;;;;;;2.85;2.38;;;19.60;77.20;;;;;;5013702;28;20189;-83
2022/08/27 01:45:06;;;;;;;2.90;1.80;;;19.50;76.40;;;;;;5012840;28;20196;-83
2022/08/27 01:47:32;;;;;;;2.33;2.25;;;19.50;76.70;;;;;;5010700;28;20189;-83
2022/08/27 01:49:59;;;;;;;3.03;2.60;;;19.50;77.60;;;;;;5010215;28;20231;-83
2022/08/27 01:52:26;;;;;;;3.92;2.35;;;19.40;76.70;;;;;;5013652;28;20193;-82
2022/08/27 01:54:52;;;;;;;2.20;2.10;;;19.40;76.40;;;;;;5011744;28;20580;-83
2022/08/27 01:57:19;;;;;;;3.30;2.20;;;19.30;76.20;;;;;;5014179;28;20177;-82
2022/08/27 01:59:46;;;;;;;4.78;2.90;;;19.30;76.30;;;;;;5045737;28;20210;-81
2022/08/27 02:02:15;;;;;;;2.45;2.25;;;19.30;76.60;;;;;;5054295;28;20318;-82
2022/08/27 02:04:42;;;;;;;2.08;2.05;;;19.30;76.70;;;;;;5054860;28;20179;-83
2022/08/27 02:07:08;;;;;;;2.83;2.65;;;19.30;76.80;;;;;;5054517;28;20183;-82
2022/08/27 02:09:34;;;;;;;3.38;2.30;;;19.30;77.60;;;;;;5052230;28;20183;-82
2022/08/27 02:12:00;;;;;;;2.67;2.45;;;19.30;77.60;;;;;;5055007;28;20664;-82
2022/08/27 02:14:27;;;;;;;3.50;2.30;;;19.20;77.50;;;;;;5056359;28;20191;-83
2022/08/27 02:16:53;;;;;;;2.55;2.10;;;19.20;76.40;;;;;;5051689;28;20242;-83
2022/08/27 02:19:20;;;;;;;7.03;2.63;;;19.20;78.30;;;;;;5048770;28;20179;-83
2022/08/27 02:21:47;;;;;;;4.85;1.95;;;19.20;78.20;;;;;;5054223;28;20233;-83
2022/08/27 02:24:12;;;;;;;1.98;1.88;;;19.10;78.80;;;;;;5056890;28;20175;-82
2022/08/27 02:26:38;;;;;;;2.95;2.25;;;19.10;78.40;;;;;;5056121;28;20289;-83
2022/08/27 02:29:04;;;;;;;1.63;1.58;;;19.10;78.10;;;;;;5055966;28;20187;-83
2022/08/27 02:31:30;;;;;;;4.40;2.10;;;19.10;78.70;;;;;;5055881;28;20211;-83
2022/08/27 02:33:56;;;;;;;2.15;2.05;;;19.00;78.40;;;;;;5051314;28;20273;-82
2022/08/27 02:36:23;;;;;;;2.78;1.85;;;19.00;78.60;;;;;;5049560;28;20207;-83
2022/08/27 02:38:50;;;;;;;2.70;1.98;;;19.00;78.70;;;;;;5050247;28;20179;-82
2022/08/27 02:41:15;;;;;;;2.97;2.22;;;18.90;77.80;;;;;;5052966;28;20190;-82
2022/08/27 02:43:42;;;;;;;2.42;2.10;;;18.80;77.40;;;;;;5053458;28;20195;-83
2022/08/27 02:46:10;;;;;;;2.25;1.83;;;18.80;76.80;;;;;;5053114;28;20653;-83
2022/08/27 02:48:37;;;;;;;2.50;1.77;;;18.70;77.40;;;;;;5054437;28;20239;-83
2022/08/27 02:51:05;;;;;;;1.95;1.63;;;18.70;78.20;;;;;;5054980;28;20218;-83
2022/08/27 02:53:31;;;;;;;1.90;1.83;;;18.70;79.10;;;;;;5053947;28;20186;-83
2022/08/27 02:55:57;;;;;;;2.88;2.38;;;18.70;78.90;;;;;;5057858;28;20881;-82
2022/08/27 02:58:23;;;;;;;2.17;2.08;;;18.70;79.40;;;;;;5050724;28;20199;-82
2022/08/27 03:00:49;;;;;;;2.03;1.88;;;18.70;79.30;;;;;;5081760;28;20549;-82
2022/08/27 03:03:15;;;;;;;2.03;1.83;;;18.70;79.30;;;;;;5051957;28;20211;-82
2022/08/27 03:05:41;;;;;;;2.97;2.40;;;18.70;79.00;;;;;;5052800;28;20258;-82
2022/08/27 03:08:07;;;;;;;3.42;2.05;;;18.60;79.30;;;;;;5054916;28;20560;-83
2022/08/27 03:10:34;;;;;;;2.30;2.05;;;18.60;79.60;;;;;;5054196;28;20179;-82
2022/08/27 03:12:59;;;;;;;9.18;2.20;;;18.60;79.70;;;;;;5051100;28;20187;-82
2022/08/27 03:15:25;;;;;;;5.05;2.00;;;18.50;79.60;;;;;;5049933;28;20203;-83
2022/08/27 03:20:39;;;;;;;3.70;2.13;;;18.50;79.80;;;;;;5046622;28;20198;-82
2022/08/27 03:23:07;;;;;;;4.82;2.13;;;18.40;79.50;;;;;;5052096;28;20180;-82
2022/08/27 03:25:33;;;;;;;2.17;2.03;;;18.40;80.00;;;;;;5055259;28;20930;-82
2022/08/27 03:27:58;;;;;;;2.05;1.88;;;18.40;80.30;;;;;;5058392;28;20183;-82
2022/08/27 03:30:24;;;;;;;2.20;1.85;;;18.40;80.10;;;;;;5049466;28;20553;-82
2022/08/27 03:32:50;;;;;;;3.03;2.45;;;18.30;80.10;;;;;;5051663;28;20282;-82
2022/08/27 03:35:18;;;;;;;3.00;2.78;;;18.30;80.10;;;;;;5046468;28;20287;-82
2022/08/27 03:37:44;;;;;;;4.43;2.63;;;18.30;79.80;;;;;;5056937;28;20187;-82
2022/08/27 03:40:10;;;;;;;2.30;2.10;;;18.30;80.20;;;;;;5054450;28;20657;-82
2022/08/27 03:42:37;;;;;;;6.38;2.58;;;18.20;79.70;;;;;;5049405;28;20241;-82
2022/08/27 03:45:04;;;;;;;2.40;2.30;;;18.20;80.90;;;;;;5053026;28;20200;-82
2022/08/27 03:47:31;;;;;;;2.08;1.67;;;18.20;80.20;;;;;;5051735;28;20183;-82
2022/08/27 03:49:58;;;;;;;2.35;2.17;;;18.20;80.20;;;;;;5050424;28;20196;-82
2022/08/27 03:52:24;;;;;;;2.20;2.10;;;18.10;79.70;;;;;;5054181;28;20179;-83
2022/08/27 03:54:50;;;;;;;3.45;2.35;;;18.10;79.70;;;;;;5052424;28;20191;-82
2022/08/27 03:57:16;;;;;;;2.60;2.50;;;18.10;78.90;;;;;;5047894;28;20190;-82
2022/08/27 03:59:42;;;;;;;2.03;1.92;;;18.10;79.90;;;;;;5049812;28;20187;-82
2022/08/27 04:02:07;;;;;;;2.15;2.00;;;18.10;80.90;;;;;;5053704;28;20179;-82
2022/08/27 04:04:33;;;;;;;3.50;2.40;;;18.10;80.70;;;;;;5052798;28;20949;-83
2022/08/27 04:06:59;;;;;;;2.67;2.47;;;18.00;79.70;;;;;;5055332;28;20206;-83
2022/08/27 04:09:24;;;;;;;5.53;2.40;;;18.00;80.20;;;;;;5052486;28;20253;-83
2022/08/27 04:11:50;;;;;;;2.25;1.67;;;18.00;79.50;;;;;;5056434;28;20191;-83
2022/08/27 04:14:16;;;;;;;2.58;2.17;;;18.00;79.90;;;;;;5055393;28;20188;-83
2022/08/27 04:16:42;;;;;;;2.20;2.03;;;18.00;81.00;;;;;;5053752;28;20253;-83
2022/08/27 04:19:08;;;;;;;2.60;2.10;;;18.00;79.70;;;;;;5056393;28;20740;-83
2022/08/27 04:21:34;;;;;;;3.13;2.33;;;18.00;80.40;;;;;;5049764;28;20183;-84
2022/08/27 04:24:00;;;;;;;2.38;2.22;;;18.00;81.40;;;;;;5050415;28;20238;-82
2022/08/27 04:26:27;;;;;;;2.65;2.47;;;18.00;80.50;;;;;;5051389;28;20245;-82
2022/08/27 04:28:54;;;;;;;3.53;2.35;;;18.00;80.00;;;;;;5052884;28;20205;-82
2022/08/27 04:31:20;;;;;;;2.38;2.28;;;18.00;80.70;;;;;;5052186;28;20179;-82
2022/08/27 04:33:46;;;;;;;2.58;2.47;;;18.00;80.40;;;;;;5051942;28;20626;-82
2022/08/27 04:36:13;;;;;;;8.02;3.00;;;18.00;80.30;;;;;;5051862;28;20211;-82
2022/08/27 04:38:38;;;;;;;5.75;1.88;;;18.10;80.80;;;;;;5055011;28;20187;-82
2022/08/27 04:41:20;;;;;;;2.33;2.15;;;18.10;80.10;;;;;;5048648;28;20180;-82
2022/08/27 04:43:55;;;;;;;4.68;1.98;;;18.10;79.90;;;;;;5048791;28;20196;-81
2022/08/27 04:46:33;;;;;;;1.92;1.83;;;18.10;81.30;;;;;;5050321;28;20183;-82
2022/08/27 04:49:01;;;;;;;2.45;2.35;;;18.20;79.90;;;;;;5048646;28;20262;-82
2022/08/27 04:51:28;;;;;;;4.10;2.60;;;18.20;80.30;;;;;;5050998;28;20278;-82
2022/08/27 04:53:54;;;;;;;1.80;1.70;;;18.20;80.60;;;;;;5048305;28;20191;-83
2022/08/27 04:56:22;;;;;;;2.50;2.40;;;18.20;80.20;;;;;;5051610;28;20199;-82
2022/08/27 04:58:49;;;;;;;2.42;2.35;;;18.30;80.50;;;;;;5047713;28;20187;-82
2022/08/27 05:01:20;;;;;;;2.58;2.38;;;18.30;80.80;;;;;;5048603;28;20612;-82
2022/08/27 05:03:46;;;;;;;2.50;2.30;;;18.30;80.50;;;;;;5049696;28;20187;-82
2022/08/27 05:06:12;;;;;;;3.42;2.50;;;18.40;80.40;;;;;;5052777;28;20194;-83
2022/08/27 05:08:38;;;;;;;2.33;2.08;;;18.40;80.90;;;;;;5049744;28;20192;-82
2022/08/27 05:11:07;;;;;;;5.47;2.42;;;18.50;80.60;;;;;;5056680;28;20187;-82
2022/08/27 05:13:33;;;;;;;4.88;2.20;;;18.50;80.10;;;;;;5054964;28;20179;-83
2022/08/27 05:16:01;;;;;;;6.90;2.22;;;18.50;80.50;;;;;;5065139;28;20211;-83
2022/08/27 05:18:28;;;;;;;3.67;2.53;;;18.60;80.50;;;;;;5065520;28;20180;-83
2022/08/27 05:20:54;;;;;;;2.80;2.50;;;18.60;80.80;;;;;;5064275;28;20184;-84
2022/08/27 05:23:20;;;;;;;2.28;2.17;;;18.60;80.50;;;;;;5066746;28;20175;-85
2022/08/27 05:25:47;;;;;;;6.82;2.92;;;18.70;80.40;;;;;;5065276;28;20192;-83
2022/08/27 05:28:14;;;;;;;2.97;2.88;;;18.70;80.50;;;;;;5063930;28;20621;-83
2022/08/27 05:30:43;;;;;;;3.33;2.65;;;18.80;81.10;;;;;;5065296;28;20179;-83
2022/08/27 05:33:10;;;;;;;3.63;2.22;;;18.80;81.50;;;;;;5067857;28;20184;-83
2022/08/27 05:35:56;;;;;;;3.13;2.22;;;18.90;80.90;;;;;;5061023;28;20206;-82
2022/08/27 05:38:25;;;;;;;2.45;2.25;;;18.90;81.20;;;;;;5062857;28;20183;-82
2022/08/27 05:41:04;;;;;;;2.10;2.00;;;19.00;80.90;;;;;;5067842;28;20660;-81
2022/08/27 05:43:30;;;;;;;1.88;1.75;;;19.00;80.50;;;;;;5064291;28;20565;-83
2022/08/27 05:45:56;;;;;;;3.03;2.50;;;19.10;81.30;;;;;;5062646;28;20670;-82
2022/08/27 05:48:22;;;;;;;6.38;2.20;;;19.10;81.10;;;;;;5058400;28;20278;-83
2022/08/27 05:50:47;;;;;;;4.90;2.58;;;19.10;80.80;;;;;;5064066;28;20176;-82
2022/08/27 05:53:13;;;;;;;5.03;2.03;;;19.20;80.60;;;;;;5065528;28;20219;-83
2022/08/27 05:55:42;;;;;;;4.15;2.45;;;19.20;80.60;;;;;;5066030;28;20211;-83
2022/08/27 06:01:03;;;;;;;4.13;2.33;;;19.20;80.30;;;;;;5058561;28;20184;-80
2022/08/27 06:01:03;;;;;;;4.03;2.65;;;19.20;80.20;;;;;;5056958;28;20244;-80
2022/08/27 06:03:33;;;;;;;3.60;2.25;;;19.30;80.10;;;;;;5053940;28;20720;-80
2022/08/27 06:06:00;;;;;;;3.80;2.67;;;19.30;80.00;;;;;;5061415;28;20573;-81
2022/08/27 06:08:26;;;;;;;3.00;2.75;;;19.40;80.20;;;;;;5051533;28;20192;-81
2022/08/27 06:10:51;;;;;;;5.60;2.70;;;19.50;79.80;;;;;;5055231;28;20183;-79
2022/08/27 06:13:17;;;;;;;5.05;2.58;;;19.50;80.00;;;;;;5055686;28;20715;-80
2022/08/27 06:15:43;;;;;;;2.50;2.40;;;19.60;79.50;;;;;;5059204;28;20315;-79
2022/08/27 06:18:09;;;;;;;3.00;2.67;;;19.60;79.30;;;;;;5065945;28;20190;-79
2022/08/27 06:20:34;;;;;;;4.32;2.63;;;19.70;79.10;;;;;;5066967;28;20186;-80
2022/08/27 06:23:00;;;;;;;3.35;2.58;;;19.70;79.00;;;;;;5060433;28;20214;-79
2022/08/27 06:25:26;;;;;;;2.80;2.70;;;19.80;79.00;;;;;;5063435;28;20174;-80
2022/08/27 06:27:52;;;;;;;3.75;3.25;;;19.90;79.20;;;;;;5058901;28;20179;-79
2022/08/27 06:30:17;;;;;;;3.03;2.83;;;19.90;78.80;;;;;;5057554;28;20251;-79
2022/08/27 06:32:43;;;;;;;4.68;2.70;;;20.00;79.10;;;;;;5057282;28;20195;-80
2022/08/27 06:35:09;;;;;;;2.78;2.67;;;20.10;78.80;;;;;;5059490;28;20267;-80
2022/08/27 06:37:35;;;;;;;2.28;2.13;;;20.10;79.10;;;;;;5057441;28;20175;-80
2022/08/27 06:40:00;;;;;;;3.63;2.80;;;20.20;78.80;;;;;;5060542;28;20237;-79
2022/08/27 06:42:26;;;;;;;2.95;2.47;;;20.20;78.50;;;;;;5060547;28;20186;-79
2022/08/27 06:44:53;;;;;;;3.85;2.85;;;20.30;78.70;;;;;;5063951;28;20196;-79
2022/08/27 06:47:18;;;;;;;5.28;2.40;;;20.40;77.90;;;;;;5060672;28;20179;-80
2022/08/27 06:49:44;;;;;;;3.58;2.78;;;20.40;77.90;;;;;;5059843;28;20179;-80
2022/08/27 06:52:10;;;;;;;5.30;2.10;;;20.50;77.90;;;;;;5058223;28;20233;-79
2022/08/27 06:54:35;;;;;;;3.05;2.20;;;20.60;78.00;;;;;;5059453;28;20240;-79
2022/08/27 06:57:01;;;;;;;2.50;2.30;;;20.60;78.20;;;;;;5060917;28;20704;-79
2022/08/27 06:59:27;;;;;;;2.45;2.35;;;20.70;77.70;;;;;;5060041;28;20720;-78
2022/08/27 07:01:53;;;;;;;2.40;2.30;;;20.70;77.40;;;;;;5055922;28;20179;-78
2022/08/27 07:04:22;;;;;;;3.65;2.60;;;20.80;77.40;;;;;;5064841;28;20206;-79
2022/08/27 07:06:48;;;;;;;2.40;2.20;;;20.90;76.80;;;;;;5055464;28;20318;-78
2022/08/27 07:09:14;;;;;;;5.43;2.92;;;20.90;77.00;;;;;;5066296;28;20187;-80
2022/08/27 07:11:40;;;;;;;5.15;2.70;;;21.00;76.80;;;;;;5059729;28;20241;-75
2022/08/27 07:14:07;;;;;;;2.85;2.67;;;21.00;76.50;;;;;;5045369;28;20579;-75
2022/08/27 07:16:32;;;;;;;2.72;2.53;;;21.10;76.50;;;;;;5050460;28;20211;-75
2022/08/27 07:19:00;;;;;;;2.83;2.55;;;21.20;76.60;;;;;;5046686;28;20209;-75
2022/08/27 07:21:27;;;;;;;4.55;2.38;;;21.30;76.60;;;;;;5048102;28;20306;-75
2022/08/27 07:23:54;;;;;;;2.97;2.28;;;21.30;76.50;;;;;;5052004;28;20194;-75
2022/08/27 07:26:22;;;;;;;4.07;2.17;;;21.40;75.90;;;;;;5044568;28;20184;-75
2022/08/27 07:28:48;;;;;;;2.75;2.58;;;21.50;75.80;;;;;;5077853;28;20210;-75
2022/08/27 07:31:18;;;;;;;2.30;2.30;;;21.60;75.40;;;;;;5053446;28;20237;-75
2022/08/27 07:33:44;;;;;;;5.60;1.73;;;21.70;75.10;;;;;;5050983;28;20187;-75
2022/08/27 07:36:11;;;;;;;2.83;2.63;;;21.70;75.40;;;;;;5041100;28;20298;-75
2022/08/27 07:38:36;;;;;;;3.83;2.08;;;21.80;75.90;;;;;;5049606;28;20241;-76
2022/08/27 07:41:07;;;;;;;3.03;2.22;;;21.90;75.30;;;;;;5041520;28;20187;-75
2022/08/27 07:46:18;;;;;;;2.67;2.33;;;22.00;75.20;;;;;;5051251;28;20222;-76
2022/08/27 07:48:44;;;;;;;6.55;2.88;;;22.20;75.30;;;;;;5044825;28;20270;-76
2022/08/27 07:51:16;;;;;;;3.22;2.70;;;22.30;75.30;;;;;;5048627;28;20176;-76
2022/08/27 07:53:43;;;;;;;4.50;2.30;;;22.30;74.60;;;;;;5047829;28;20292;-76
2022/08/27 07:56:08;;;;;;;2.45;2.35;;;22.50;74.60;;;;;;5043107;28;20214;-76
2022/08/27 07:58:34;;;;;;;3.08;2.65;;;22.60;74.40;;;;;;5050734;28;20195;-78
2022/08/27 08:01:00;;;;;;;5.22;2.75;;;22.70;74.50;;;;;;5050181;28;20179;-77
2022/08/27 08:03:26;;;;;;;8.32;3.88;;;22.80;74.70;;;;;;5052677;28;20290;-77
2022/08/27 08:05:53;;;;;;;3.45;3.25;;;22.90;74.80;;;;;;5048318;28;20187;-78
2022/08/27 08:08:20;;;;;;;5.63;3.10;;;23.00;73.80;;;;;;5045878;28;20285;-77
2022/08/27 08:10:47;;;;;;;3.30;2.45;;;23.10;73.90;;;;;;5052213;28;20186;-77
2022/08/27 08:13:14;;;;;;;5.70;2.40;;;23.20;73.10;;;;;;5052307;28;20182;-78
2022/08/27 08:15:43;;;;;;;7.20;3.00;;;23.40;72.50;;;;;;5047804;28;20977;-77
2022/08/27 08:18:09;;;;;;;2.67;2.33;;;23.40;71.60;;;;;;5047840;28;20187;-77
2022/08/27 08:20:35;;;;;;;3.03;2.90;;;23.50;72.40;;;;;;5039840;28;20175;-80
2022/08/27 08:23:01;;;;;;;2.63;2.40;;;23.70;72.50;;;;;;5051785;28;20179;-80
2022/08/27 08:25:27;;;;;;;3.13;2.38;;;23.70;71.90;;;;;;5045457;28;20187;-78
2022/08/27 08:27:54;;;;;;;2.70;2.53;;;23.90;71.90;;;;;;5050405;28;20205;-79
2022/08/27 08:30:20;;;;;;;6.10;2.58;;;24.00;72.20;;;;;;5050820;28;20187;-79
2022/08/27 08:32:45;;;;;;;2.70;2.50;;;24.10;71.40;;;;;;5050549;28;20190;-82
2022/08/27 08:35:11;;;;;;;4.03;2.75;;;24.30;71.40;;;;;;5049680;28;20215;-78
2022/08/27 08:37:37;;;;;;;3.00;2.28;;;24.40;71.70;;;;;;5054610;28;20180;-78
2022/08/27 08:40:05;;;;;;;3.67;2.47;;;24.50;70.60;;;;;;5048666;28;20404;-76
2022/08/27 08:42:50;;;;;;;3.78;2.65;;;24.70;71.00;;;;;;5045476;28;20270;-76
2022/08/27 08:45:22;;;;;;;2.88;2.20;;;24.80;70.00;;;;;;5054252;28;20594;-74
2022/08/27 08:48:10;;;;;;;2.22;2.13;;;25.00;68.20;;;;;;5051749;28;20783;-75
2022/08/27 08:51:03;;;;;;;3.38;2.33;;;25.20;68.10;;;;;;5052013;28;20187;-74
2022/08/27 08:53:34;;;;;;;4.70;1.88;;;25.40;68.80;;;;;;4992131;28;20244;-74
2022/08/27 08:56:04;;;;;;;3.85;2.55;;;25.50;67.40;;;;;;4992817;28;20236;-75
2022/08/27 08:58:40;;;;;;;4.20;2.35;;;25.70;68.10;;;;;;4987928;28;20264;-74
2022/08/27 09:01:08;;;;;;;2.88;2.78;;;25.90;67.40;;;;;;4991906;28;20247;-76
2022/08/27 09:03:40;;;;;;;4.25;2.42;;;26.20;66.10;;;;;;4989922;28;20285;-74
2022/08/27 09:06:21;;;;;;;7.53;2.42;;;26.50;65.80;;;;;;4987970;28;20200;-75
2022/08/27 09:08:47;;;;;;;2.60;2.28;;;26.90;65.30;;;;;;4989591;28;20202;-79
2022/08/27 09:11:37;;;;;;;4.47;2.58;;;27.30;65.20;;;;;;4988277;28;20201;-74
2022/08/27 09:14:23;;;;;;;2.25;2.00;;;27.90;61.80;;;;;;4987855;28;21020;-75
2022/08/27 09:16:49;;;;;;;7.68;2.08;;;28.40;60.80;;;;;;4985754;28;20241;-75
2022/08/27 09:19:15;;;;;;;2.10;1.90;;;29.00;59.90;;;;;;4988757;28;20336;-83
2022/08/27 09:21:48;;;;;;;2.80;1.95;;;29.50;59.80;;;;;;4986069;28;20921;-77
2022/08/27 09:25:01;;;;;;;1.90;1.80;;;30.20;60.20;;;;;;4992969;28;21733;-75
2022/08/27 09:27:27;;;;;;;2.08;1.58;;;31.20;56.20;;;;;;4947901;28;20199;-79
2022/08/27 09:29:55;;;;;;;2.55;1.90;;;32.00;57.10;;;;;;4959449;28;21146;-76
2022/08/27 09:32:23;;;;;;;9.85;1.85;;;32.80;57.70;;;;;;5012266;28;20188;-78
2022/08/27 09:34:50;;;;;;;1.98;1.80;;;33.50;52.80;;;;;;5011999;28;20914;-76
2022/08/27 09:37:23;;;;;;;3.65;1.83;;;34.00;53.70;;;;;;4993729;28;20356;-78
2022/08/27 09:40:08;;;;;;;6.53;1.67;;;34.50;54.00;;;;;;5002095;28;20281;-78
2022/08/27 09:42:51;;;;;;;1.98;1.75;;;35.00;50.60;;;;;;4992438;28;20183;-78
2022/08/27 09:45:29;;;;;;;1.67;1.58;;;35.50;52.00;;;;;;4991007;28;20299;-87
2022/08/27 09:48:10;;;;;;;3.80;1.77;;;36.20;49.20;;;;;;5015504;28;20942;-83
2022/08/27 09:50:46;;;;;;;4.63;1.58;;;36.70;47.50;;;;;;5013702;28;20184;-82
2022/08/27 09:53:44;;;;;;;1.67;1.60;;;36.80;48.60;;;;;;5012023;28;20766;-78
2022/08/27 09:56:26;;;;;;;4.60;1.45;;;37.10;47.00;;;;;;5003596;28;20658;-79
2022/08/27 09:59:03;;;;;;;5.72;1.80;;;37.50;45.70;;;;;;4993996;28;20273;-77
2022/08/27 10:01:31;;;;;;;2.08;1.50;;;37.90;47.60;;;;;;5009644;28;20191;-80
2022/08/27 10:04:03;;;;;;;1.75;1.23;;;38.40;48.30;;;;;;5055813;28;20208;-80
2022/08/27 10:06:30;;;;;;;2.15;1.58;;;39.00;45.00;;;;;;5055799;28;20271;-78
2022/08/27 10:09:05;;;;;;;2.45;1.25;;;39.50;44.70;;;;;;5053788;28;20819;-80
2022/08/27 10:11:36;;;;;;;1.50;1.50;;;39.50;44.00;;;;;;5053411;28;20189;-78
2022/08/27 10:14:18;;;;;;;5.03;2.22;;;39.60;45.80;;;;;;5050185;28;20179;-78
2022/08/27 10:17:31;;;;;;;4.82;1.42;;;39.80;42.60;;;;;;5052159;28;20206;-78
2022/08/27 10:19:57;;;;;;;3.38;1.30;;;39.90;42.00;;;;;;5017598;28;20195;-78
2022/08/27 10:22:36;;;;;;;3.40;1.48;;;39.70;44.00;;;;;;5017613;28;20860;-78
2022/08/27 10:25:16;;;;;;;4.70;1.77;;;39.80;41.60;;;;;;5016290;28;20624;-78
2022/08/27 10:27:50;;;;;;;2.60;1.80;;;39.70;41.80;;;;;;5010049;28;20222;-78
2022/08/27 10:30:34;;;;;;;3.10;1.63;;;39.60;44.40;;;;;;5009853;28;20596;-78
2022/08/27 10:33:12;;;;;;;3.75;1.98;;;39.40;42.70;;;;;;5015679;28;20194;-78
2022/08/27 10:35:50;;;;;;;2.92;1.80;;;39.50;46.60;;;;;;5014846;28;20229;-78
2022/08/27 10:38:16;;;;;;;1.60;1.50;;;39.90;46.00;;;;;;5013740;28;20191;-78
2022/08/27 10:40:53;;;;;;;2.92;1.80;;;40.20;44.80;;;;;;5015377;28;20188;-78
2022/08/27 10:43:40;;;;;;;4.22;2.17;;;40.60;44.50;;;;;;5015005;28;20595;-78
2022/08/27 10:46:33;;;;;;;1.77;1.67;;;41.00;45.30;;;;;;5017757;28;20188;-78
2022/08/27 10:49:28;;;;;;;2.42;1.80;;;41.50;41.60;;;;;;5015335;28;20242;-79
2022/08/27 10:51:54;;;;;;;4.85;2.17;;;42.00;43.80;;;;;;5015172;28;20274;-78
2022/08/27 10:54:28;;;;;;;2.65;2.25;;;42.50;41.50;;;;;;5014825;28;20192;-78
2022/08/27 10:57:02;;;;;;;2.55;2.33;;;42.80;41.60;;;;;;5030647;28;20289;-78
2022/08/27 11:00:10;;;;;;;4.30;2.13;;;43.10;43.70;;;;;;5051933;28;20295;-78
2022/08/27 11:02:56;;;;;;;3.50;1.60;;;43.40;39.00;;;;;;5049290;28;20186;-78
2022/08/27 11:05:38;;;;;;;2.00;1.90;;;43.40;42.70;;;;;;5046539;28;20961;-78
2022/08/27 11:08:26;;;;;;;2.65;1.95;;;43.40;40.30;;;;;;5069288;28;20711;-78
2022/08/27 11:11:04;;;;;;;2.55;1.92;;;43.50;39.40;;;;;;5050859;28;20175;-78
2022/08/27 11:13:32;;;;;;;2.80;2.60;;;43.40;39.80;;;;;;5052261;28;20250;-78
2022/08/27 11:16:01;;;;;;;3.00;2.30;;;43.40;42.00;;;;;;5050677;28;20210;-77
2022/08/27 11:18:30;;;;;;;8.13;2.55;;;43.30;39.80;;;;;;5046858;28;20183;-78
2022/08/27 11:20:58;;;;;;;5.45;2.45;;;43.00;40.00;;;;;;5045750;28;20187;-78
2022/08/27 11:23:45;;;;;;;3.03;2.55;;;43.10;39.80;;;;;;5053497;28;20245;-78
2022/08/27 11:26:12;;;;;;;9.93;3.00;;;43.10;37.60;;;;;;5049260;28;20182;-78
2022/08/27 11:28:40;;;;;;;4.63;2.35;;;43.10;38.80;;;;;;5052934;28;20198;-78
2022/08/27 11:31:31;;;;;;;4.38;2.65;;;43.30;37.30;;;;;;5051524;28;20190;-79
2022/08/27 11:34:23;;;;;;;4.63;2.42;;;43.10;38.50;;;;;;5049541;28;20190;-78
2022/08/27 11:37:11;;;;;;;2.78;2.67;;;43.20;37.60;;;;;;5020548;28;20236;-79
2022/08/27 11:39:48;;;;;;;4.07;2.70;;;43.30;37.80;;;;;;5018333;28;20187;-78
2022/08/27 11:42:40;;;;;;;4.10;2.38;;;43.40;37.60;;;;;;5019775;28;20314;-79
2022/08/27 11:45:19;;;;;;;6.47;2.60;;;43.40;36.70;;;;;;5017551;28;20275;-79
2022/08/27 11:47:54;;;;;;;2.40;2.17;;;43.30;37.80;;;;;;5017340;28;20337;-79
2022/08/27 11:50:21;;;;;;;2.42;2.22;;;43.30;36.50;;;;;;5017506;28;20559;-78
2022/08/27 11:53:05;;;;;;;3.15;2.47;;;43.10;36.60;;;;;;5014229;28;20192;-77
2022/08/27 11:55:37;;;;;;;3.17;2.42;;;42.80;36.70;;;;;;5016733;28;20219;-77
2022/08/27 11:58:21;;;;;;;6.32;2.55;;;42.50;39.60;;;;;;5019391;28;20263;-77
2022/08/27 12:00:47;;;;;;;6.07;2.28;;;42.20;40.40;;;;;;5016002;28;20196;-79
2022/08/27 12:03:19;;;;;;;2.03;1.90;;;41.90;39.10;;;;;;5017498;28;20306;-79
2022/08/27 12:05:53;;;;;;;2.47;2.38;;;41.70;40.20;;;;;;5018033;28;20191;-77
2022/08/27 12:08:21;;;;;;;2.20;2.20;;;41.80;39.00;;;;;;5017504;28;20742;-79
2022/08/27 12:10:59;;;;;;;3.20;2.17;;;41.90;39.00;;;;;;5018634;28;20666;-79
2022/08/27 12:13:28;;;;;;;2.13;2.03;;;41.90;37.70;;;;;;5029873;28;20243;-79
2022/08/27 12:15:59;;;;;;;5.10;2.03;;;41.70;39.10;;;;;;5057994;28;20214;-79
2022/08/27 12:18:55;;;;;;;2.33;2.05;;;41.50;37.10;;;;;;5050565;28;20765;-79
2022/08/27 12:21:35;;;;;;;2.97;2.05;;;41.80;37.30;;;;;;5052913;28;20183;-79
2022/08/27 12:24:26;;;;;;;4.20;2.13;;;42.00;37.40;;;;;;5054107;28;20185;-79
2022/08/27 12:27:11;;;;;;;2.40;2.20;;;41.80;37.10;;;;;;5053440;28;20224;-79
2022/08/27 12:29:45;;;;;;;1.98;1.85;;;41.90;37.70;;;;;;5052496;28;20214;-77
2022/08/27 12:32:24;;;;;;;5.05;2.30;;;42.10;38.40;;;;;;5053260;28;20183;-77
2022/08/27 12:35:27;;;;;;;3.55;2.38;;;42.00;37.60;;;;;;5051882;28;20186;-78
2022/08/27 12:37:55;;;;;;;2.05;2.05;;;41.90;36.80;;;;;;5048244;28;20198;-78
2022/08/27 12:40:46;;;;;;;2.95;2.30;;;41.50;38.50;;;;;;5056320;28;20210;-77
2022/08/27 12:43:16;;;;;;;2.78;2.50;;;41.70;37.50;;;;;;5011284;28;20324;-78
2022/08/27 12:45:49;;;;;;;2.80;2.50;;;41.90;37.90;;;;;;5009375;28;20255;-77
2022/08/27 12:48:20;;;;;;;4.38;2.88;;;42.00;39.30;;;;;;5009162;28;20570;-77
2022/08/27 12:50:58;;;;;;;1.73;1.73;;;41.90;39.20;;;;;;5008177;28;20188;-77
2022/08/27 12:53:45;;;;;;;2.58;2.38;;;41.80;40.20;;;;;;5010529;28;20741;-78
2022/08/27 12:56:29;;;;;;;3.38;2.92;;;41.90;39.20;;;;;;5011558;28;20746;-78
2022/08/27 12:59:08;;;;;;;3.92;2.58;;;42.00;38.40;;;;;;5011336;28;20565;-78
2022/08/27 13:01:45;;;;;;;4.88;2.15;;;41.90;39.20;;;;;;5008770;28;20188;-78
2022/08/27 13:04:32;;;;;;;3.03;2.20;;;42.20;39.40;;;;;;5015314;28;20743;-78
2022/08/27 13:06:58;;;;;;;2.33;2.13;;;42.10;36.70;;;;;;5010413;28;20274;-78
2022/08/27 13:09:29;;;;;;;2.60;2.38;;;42.10;39.10;;;;;;5013376;28;20589;-78
2022/08/27 13:11:55;;;;;;;4.35;2.10;;;42.30;39.40;;;;;;5015216;28;20196;-78
2022/08/27 13:14:24;;;;;;;5.85;2.42;;;42.20;39.10;;;;;;5013655;28;20758;-78